Maersk Marmara — 9V9266 — position and weather

sailwx.info

Track history (hours):
 
Tides and Currents Weather Stations Pressure Air Temp Water Temp Dewpoint Dewpoint Depression Visibility Wind Speed Wind Dir Waves Ship Positions

Maersk Marmara

Last reported at 2018-Feb-24 06:33 UTC. Time now 2018-Feb-24 12:16 UTC.
Position S 32°55' E 151°46'.

Length 183 m; draft 7.3 m.

Type: Ship. MMSI: 564100000.

Date/timePositionNaut miles runAvg speedWind from/ knotsBaromVisibWave heightAir tempDewpointWater temp
2018-Feb-24 06:33S 32°55' E 151°46'0 0.1
2018-Feb-24 06:30S 32°55' E 151°46'1 1.4
2018-Feb-24 06:00S 32°55' E 151°47'3 6.8
2018-Feb-24 05:30S 32°56' E 151°51'4 7.6
2018-Feb-24 05:00S 32°60' E 151°53'2 3.6
2018-Feb-24 04:30S 33°01' E 151°52'1 3.0
2018-Feb-24 04:00S 33°03' E 151°52'2 3.4
2018-Feb-24 03:30S 33°05' E 151°52'3 5.5
2018-Feb-24 03:00S 33°07' E 151°52'510.4
2018-Feb-24 02:30S 33°13' E 151°51'611.5
2018-Feb-24 02:00S 33°18' E 151°51'611.5
2018-Feb-24 01:30S 33°24' E 151°49'611.5
2018-Feb-24 01:00S 33°29' E 151°47'611.3
2018-Feb-24 00:30S 33°35' E 151°45'611.2
2018-Feb-24 00:00S 33°40' E 151°43'611.1
2018-Feb-23 23:30S 33°45' E 151°41'610.7
2018-Feb-23 22:56S 33°51' E 151°39'510.8
2018-Feb-23 22:27S 33°56' E 151°37'25012.2
2018-Feb-23 01:56S 37°53' E 149°56'2012.0
2018-Feb-23 00:17S 38°05' E 149°37'312.2
2018-Feb-23 00:00S 38°08' E 149°34'712.8
2018-Feb-22 23:29S 38°12' E 149°27'612.9
2018-Feb-22 23:00S 38°16' E 149°21'912.9
2018-Feb-22 22:17S 38°22' E 149°13'413.0
2018-Feb-22 21:58S 38°25' E 149°08'613.1
2018-Feb-22 21:30S 38°29' E 149°03'713.0
2018-Feb-22 20:59S 38°33' E 148°56'713.1
2018-Feb-22 20:29S 38°37' E 148°50'613.2
2018-Feb-22 20:00S 38°42' E 148°44'613.0
2018-Feb-22 19:30S 38°46' E 148°38'612.8
2018-Feb-22 19:00S 38°50' E 148°31'612.8
2018-Feb-22 18:30S 38°54' E 148°25'612.8
2018-Feb-22 18:00S 38°59' E 148°19'612.2
2018-Feb-22 17:30S 39°03' E 148°13'612.1
2018-Feb-22 17:00S 39°07' E 148°07'611.8
2018-Feb-22 16:29S 39°11' E 148°01'711.7
2018-Feb-22 15:56S 39°15' E 147°55'511.6
2018-Feb-22 15:31S 39°18' E 147°50'611.7
2018-Feb-22 15:00S 39°22' E 147°44'611.8
2018-Feb-22 14:30S 39°26' E 147°39'612.0
2018-Feb-22 14:00S 39°30' E 147°33'612.5
2018-Feb-22 13:30S 39°34' E 147°27'612.8
2018-Feb-22 13:00S 39°38' E 147°21'713.2
2018-Feb-22 12:30S 39°43' E 147°14'713.3
2018-Feb-22 12:00S 39°47' E 147°08'713.5
2018-Feb-22 11:30S 39°53' E 147°03'713.7
2018-Feb-22 11:00S 39°58' E 146°57'713.7
2018-Feb-22 10:30S 40°04' E 146°52'713.8
2018-Feb-22 10:00S 40°09' E 146°47'713.8
2018-Feb-22 09:30S 40°15' E 146°42'713.8
2018-Feb-22 09:01S 40°21' E 146°36'813.8
2018-Feb-22 08:27S 40°27' E 146°30'613.6
2018-Feb-22 08:00S 40°32' E 146°26'713.6
2018-Feb-22 07:30S 40°37' E 146°20'713.4
2018-Feb-22 07:00S 40°42' E 146°15'713.4
2018-Feb-22 06:31S 40°48' E 146°10'713.3
2018-Feb-22 06:00S 40°53' E 146°05'713.5
2018-Feb-22 05:30S 40°59' E 145°60'510.5
2018-Feb-22 05:00S 41°03' E 145°56'1 0.0
2018-Feb-21 13:16S 41°03' E 145°55'0 0.0
2018-Feb-20 15:55S 41°03' E 145°55'0 0.0
2018-Feb-20 00:10S 41°03' E 145°55'0 1.2
2018-Feb-20 00:00S 41°03' E 145°55'3 6.0
2018-Feb-19 23:30S 41°01' E 145°58'4 9.0
2018-Feb-19 23:00S 40°59' E 146°03'4 7.3
2018-Feb-19 22:30S 40°58' E 146°08'611.8
2018-Feb-19 22:00S 40°57' E 146°15'612.0
2018-Feb-19 21:30S 40°55' E 146°23'612.6
2018-Feb-19 21:01S 40°53' E 146°31'713.2
2018-Feb-19 20:31S 40°51' E 146°39'612.9
2018-Feb-19 20:01S 40°50' E 146°48'713.0
2018-Feb-19 19:31S 40°48' E 146°56'613.0
2018-Feb-19 19:01S 40°46' E 147°04'713.2
2018-Feb-19 18:31S 40°44' E 147°12'713.0
2018-Feb-19 18:00S 40°42' E 147°21'713.2
2018-Feb-19 17:30S 40°41' E 147°29'713.2
2018-Feb-19 17:00S 40°40' E 147°38'713.3
2018-Feb-19 16:31S 40°39' E 147°46'713.6
2018-Feb-19 16:01S 40°39' E 147°55'814.2
2018-Feb-19 15:26S 40°39' E 148°06'615.1
2018-Feb-19 15:00S 40°41' E 148°14'  
Track history (hours):
 
Tides and Currents Weather Stations Pressure Air Temp Water Temp Dewpoint Dewpoint Depression Visibility Wind Speed Wind Dir Waves Ship Positions

Maersk Marmara

Last reported at 2018-Feb-24 06:33 UTC. Time now 2018-Feb-24 12:16 UTC.
Position S 32°55' E 151°46'.

Length 183 m; draft 7.3 m.

Type: Ship. MMSI: 564100000.

Date/timePositionNaut miles runAvg speedWind from/ knotsBaromVisibWave heightAir tempDewpointWater temp
2018-Feb-24 06:33S 32°55' E 151°46'0 0.1
2018-Feb-24 06:30S 32°55' E 151°46'1 1.4
2018-Feb-24 06:00S 32°55' E 151°47'3 6.8
2018-Feb-24 05:30S 32°56' E 151°51'4 7.6
2018-Feb-24 05:00S 32°60' E 151°53'2 3.6
2018-Feb-24 04:30S 33°01' E 151°52'1 3.0
2018-Feb-24 04:00S 33°03' E 151°52'2 3.4
2018-Feb-24 03:30S 33°05' E 151°52'3 5.5
2018-Feb-24 03:00S 33°07' E 151°52'510.4
2018-Feb-24 02:30S 33°13' E 151°51'611.5
2018-Feb-24 02:00S 33°18' E 151°51'611.5
2018-Feb-24 01:30S 33°24' E 151°49'611.5
2018-Feb-24 01:00S 33°29' E 151°47'611.3
2018-Feb-24 00:30S 33°35' E 151°45'611.2
2018-Feb-24 00:00S 33°40' E 151°43'611.1
2018-Feb-23 23:30S 33°45' E 151°41'610.7
2018-Feb-23 22:56S 33°51' E 151°39'510.8
2018-Feb-23 22:27S 33°56' E 151°37'25012.2
2018-Feb-23 01:56S 37°53' E 149°56'2012.0
2018-Feb-23 00:17S 38°05' E 149°37'312.2
2018-Feb-23 00:00S 38°08' E 149°34'712.8
2018-Feb-22 23:29S 38°12' E 149°27'612.9
2018-Feb-22 23:00S 38°16' E 149°21'912.9
2018-Feb-22 22:17S 38°22' E 149°13'413.0
2018-Feb-22 21:58S 38°25' E 149°08'613.1
2018-Feb-22 21:30S 38°29' E 149°03'713.0
2018-Feb-22 20:59S 38°33' E 148°56'713.1
2018-Feb-22 20:29S 38°37' E 148°50'613.2
2018-Feb-22 20:00S 38°42' E 148°44'613.0
2018-Feb-22 19:30S 38°46' E 148°38'612.8
2018-Feb-22 19:00S 38°50' E 148°31'612.8
2018-Feb-22 18:30S 38°54' E 148°25'612.8
2018-Feb-22 18:00S 38°59' E 148°19'612.2
2018-Feb-22 17:30S 39°03' E 148°13'612.1
2018-Feb-22 17:00S 39°07' E 148°07'611.8
2018-Feb-22 16:29S 39°11' E 148°01'711.7
2018-Feb-22 15:56S 39°15' E 147°55'511.6
2018-Feb-22 15:31S 39°18' E 147°50'611.7
2018-Feb-22 15:00S 39°22' E 147°44'611.8
2018-Feb-22 14:30S 39°26' E 147°39'612.0
2018-Feb-22 14:00S 39°30' E 147°33'612.5
2018-Feb-22 13:30S 39°34' E 147°27'612.8
2018-Feb-22 13:00S 39°38' E 147°21'713.2
2018-Feb-22 12:30S 39°43' E 147°14'713.3
2018-Feb-22 12:00S 39°47' E 147°08'713.5
2018-Feb-22 11:30S 39°53' E 147°03'713.7
2018-Feb-22 11:00S 39°58' E 146°57'713.7
2018-Feb-22 10:30S 40°04' E 146°52'713.8
2018-Feb-22 10:00S 40°09' E 146°47'713.8
2018-Feb-22 09:30S 40°15' E 146°42'713.8
2018-Feb-22 09:01S 40°21' E 146°36'813.8
2018-Feb-22 08:27S 40°27' E 146°30'613.6
2018-Feb-22 08:00S 40°32' E 146°26'713.6
2018-Feb-22 07:30S 40°37' E 146°20'713.4
2018-Feb-22 07:00S 40°42' E 146°15'713.4
2018-Feb-22 06:31S 40°48' E 146°10'713.3
2018-Feb-22 06:00S 40°53' E 146°05'713.5
2018-Feb-22 05:30S 40°59' E 145°60'510.5
2018-Feb-22 05:00S 41°03' E 145°56'1 0.0
2018-Feb-21 13:16S 41°03' E 145°55'0 0.0
2018-Feb-20 15:55S 41°03' E 145°55'0 0.0
2018-Feb-20 00:10S 41°03' E 145°55'0 1.2
2018-Feb-20 00:00S 41°03' E 145°55'3 6.0
2018-Feb-19 23:30S 41°01' E 145°58'4 9.0
2018-Feb-19 23:00S 40°59' E 146°03'4 7.3
2018-Feb-19 22:30S 40°58' E 146°08'611.8
2018-Feb-19 22:00S 40°57' E 146°15'612.0
2018-Feb-19 21:30S 40°55' E 146°23'612.6
2018-Feb-19 21:01S 40°53' E 146°31'713.2
2018-Feb-19 20:31S 40°51' E 146°39'612.9
2018-Feb-19 20:01S 40°50' E 146°48'713.0
2018-Feb-19 19:31S 40°48' E 146°56'613.0
2018-Feb-19 19:01S 40°46' E 147°04'713.2
2018-Feb-19 18:31S 40°44' E 147°12'713.0
2018-Feb-19 18:00S 40°42' E 147°21'713.2
2018-Feb-19 17:30S 40°41' E 147°29'713.2
2018-Feb-19 17:00S 40°40' E 147°38'713.3
2018-Feb-19 16:31S 40°39' E 147°46'713.6
2018-Feb-19 16:01S 40°39' E 147°55'814.2
2018-Feb-19 15:26S 40°39' E 148°06'615.1
2018-Feb-19 15:00S 40°41' E 148°14'  

Dump ship's entire track history